sensor_id;sensor_type;location;lat;lon;timestamp;temperature;humidity
5792;DHT22;2922;53.482;10.006;2023-07-09T00:01:51;20.30;99.90
5792;DHT22;2922;53.482;10.006;2023-07-09T00:04:17;20.20;99.90
5792;DHT22;2922;53.482;10.006;2023-07-09T00:06:43;20.20;99.90
5792;DHT22;2922;53.482;10.006;2023-07-09T00:09:19;20.10;99.90
5792;DHT22;2922;53.482;10.006;2023-07-09T00:11:46;20.10;99.90
5792;DHT22;2922;53.482;10.006;2023-07-09T00:14:13;20.10;99.90
5792;DHT22;2922;53.482;10.006;2023-07-09T00:16:40;20.10;99.90
5792;DHT22;2922;53.482;10.006;2023-07-09T00:19:12;20.10;99.90
5792;DHT22;2922;53.482;10.006;2023-07-09T00:21:42;20.00;99.90
5792;DHT22;2922;53.482;10.006;2023-07-09T00:24:08;20.00;99.90
5792;DHT22;2922;53.482;10.006;2023-07-09T00:26:36;20.00;99.90
5792;DHT22;2922;53.482;10.006;2023-07-09T00:29:04;19.90;99.90
5792;DHT22;2922;53.482;10.006;2023-07-09T00:31:30;19.90;99.90
5792;DHT22;2922;53.482;10.006;2023-07-09T00:33:55;19.80;99.90
5792;DHT22;2922;53.482;10.006;2023-07-09T00:36:30;19.80;99.90
5792;DHT22;2922;53.482;10.006;2023-07-09T00:39:00;19.80;99.90
5792;DHT22;2922;53.482;10.006;2023-07-09T00:41:32;19.80;99.90
5792;DHT22;2922;53.482;10.006;2023-07-09T00:49:24;19.60;99.90
5792;DHT22;2922;53.482;10.006;2023-07-09T00:51:51;19.60;99.90
5792;DHT22;2922;53.482;10.006;2023-07-09T00:54:35;19.50;99.90
5792;DHT22;2922;53.482;10.006;2023-07-09T00:57:08;19.50;99.90
5792;DHT22;2922;53.482;10.006;2023-07-09T00:59:34;19.40;99.90
5792;DHT22;2922;53.482;10.006;2023-07-09T01:02:00;19.40;99.90
5792;DHT22;2922;53.482;10.006;2023-07-09T01:04:27;19.40;99.90
5792;DHT22;2922;53.482;10.006;2023-07-09T01:06:55;19.30;99.90
5792;DHT22;2922;53.482;10.006;2023-07-09T01:09:22;19.30;99.90
5792;DHT22;2922;53.482;10.006;2023-07-09T01:11:48;19.20;99.90
5792;DHT22;2922;53.482;10.006;2023-07-09T01:14:16;19.20;99.90
5792;DHT22;2922;53.482;10.006;2023-07-09T01:16:48;19.20;99.90
5792;DHT22;2922;53.482;10.006;2023-07-09T01:19:14;19.10;99.90
5792;DHT22;2922;53.482;10.006;2023-07-09T01:21:42;19.10;99.90
5792;DHT22;2922;53.482;10.006;2023-07-09T01:24:16;19.10;99.90
5792;DHT22;2922;53.482;10.006;2023-07-09T01:26:52;19.00;99.90
5792;DHT22;2922;53.482;10.006;2023-07-09T01:29:17;19.00;99.90
5792;DHT22;2922;53.482;10.006;2023-07-09T01:31:43;19.00;99.90
5792;DHT22;2922;53.482;10.006;2023-07-09T01:34:08;18.90;99.90
5792;DHT22;2922;53.482;10.006;2023-07-09T01:36:34;18.90;99.90
5792;DHT22;2922;53.482;10.006;2023-07-09T01:39:00;18.80;99.90
5792;DHT22;2922;53.482;10.006;2023-07-09T01:41:26;18.80;99.90
5792;DHT22;2922;53.482;10.006;2023-07-09T01:43:51;18.70;99.90
5792;DHT22;2922;53.482;10.006;2023-07-09T01:46:18;18.70;99.90
5792;DHT22;2922;53.482;10.006;2023-07-09T01:48:43;18.70;99.90
5792;DHT22;2922;53.482;10.006;2023-07-09T01:51:12;18.70;99.90
5792;DHT22;2922;53.482;10.006;2023-07-09T01:53:40;18.60;99.90
5792;DHT22;2922;53.482;10.006;2023-07-09T01:56:06;18.60;99.90
5792;DHT22;2922;53.482;10.006;2023-07-09T01:58:36;18.50;99.90
5792;DHT22;2922;53.482;10.006;2023-07-09T02:01:01;18.50;99.90
5792;DHT22;2922;53.482;10.006;2023-07-09T02:03:27;18.50;99.90
5792;DHT22;2922;53.482;10.006;2023-07-09T02:05:53;18.40;99.90
5792;DHT22;2922;53.482;10.006;2023-07-09T02:08:19;18.40;99.90
5792;DHT22;2922;53.482;10.006;2023-07-09T02:10:48;18.40;99.90
5792;DHT22;2922;53.482;10.006;2023-07-09T02:13:14;18.40;99.90
5792;DHT22;2922;53.482;10.006;2023-07-09T02:15:40;18.30;99.90
5792;DHT22;2922;53.482;10.006;2023-07-09T02:18:12;18.30;99.90
5792;DHT22;2922;53.482;10.006;2023-07-09T02:20:38;18.30;99.90
5792;DHT22;2922;53.482;10.006;2023-07-09T02:23:03;18.30;99.90
5792;DHT22;2922;53.482;10.006;2023-07-09T02:25:29;18.20;99.90
5792;DHT22;2922;53.482;10.006;2023-07-09T02:27:55;18.20;99.90
5792;DHT22;2922;53.482;10.006;2023-07-09T02:30:20;18.20;99.90
5792;DHT22;2922;53.482;10.006;2023-07-09T02:32:46;18.10;99.90
5792;DHT22;2922;53.482;10.006;2023-07-09T02:35:11;18.10;99.90
5792;DHT22;2922;53.482;10.006;2023-07-09T02:37:37;18.10;99.90
5792;DHT22;2922;53.482;10.006;2023-07-09T02:40:04;18.10;99.90
5792;DHT22;2922;53.482;10.006;2023-07-09T02:42:30;18.10;99.90
5792;DHT22;2922;53.482;10.006;2023-07-09T02:44:55;18.00;99.90
5792;DHT22;2922;53.482;10.006;2023-07-09T02:47:21;18.00;99.90
5792;DHT22;2922;53.482;10.006;2023-07-09T02:49:47;18.00;99.90
5792;DHT22;2922;53.482;10.006;2023-07-09T02:52:13;17.90;99.90
5792;DHT22;2922;53.482;10.006;2023-07-09T02:54:38;17.90;99.90
5792;DHT22;2922;53.482;10.006;2023-07-09T02:57:04;17.90;99.90
5792;DHT22;2922;53.482;10.006;2023-07-09T02:59:30;17.90;99.90
5792;DHT22;2922;53.482;10.006;2023-07-09T03:01:56;17.80;99.90
5792;DHT22;2922;53.482;10.006;2023-07-09T03:04:22;17.80;99.90
5792;DHT22;2922;53.482;10.006;2023-07-09T03:06:47;17.80;99.90
5792;DHT22;2922;53.482;10.006;2023-07-09T03:09:13;17.80;99.90
5792;DHT22;2922;53.482;10.006;2023-07-09T03:11:38;17.80;99.90
5792;DHT22;2922;53.482;10.006;2023-07-09T03:14:04;17.70;99.90
5792;DHT22;2922;53.482;10.006;2023-07-09T03:16:32;17.70;99.90
5792;DHT22;2922;53.482;10.006;2023-07-09T03:18:58;17.70;99.90
5792;DHT22;2922;53.482;10.006;2023-07-09T03:21:25;17.70;99.90
5792;DHT22;2922;53.482;10.006;2023-07-09T03:23:52;17.60;99.90
5792;DHT22;2922;53.482;10.006;2023-07-09T03:26:18;17.70;99.90
5792;DHT22;2922;53.482;10.006;2023-07-09T03:28:43;17.60;99.90
5792;DHT22;2922;53.482;10.006;2023-07-09T03:31:09;17.60;99.90
5792;DHT22;2922;53.482;10.006;2023-07-09T03:33:35;17.60;99.90
5792;DHT22;2922;53.482;10.006;2023-07-09T03:36:00;17.60;99.90
5792;DHT22;2922;53.482;10.006;2023-07-09T03:38:26;17.60;99.90
5792;DHT22;2922;53.482;10.006;2023-07-09T03:40:53;17.60;99.90
5792;DHT22;2922;53.482;10.006;2023-07-09T03:43:19;17.50;99.90
5792;DHT22;2922;53.482;10.006;2023-07-09T03:45:45;17.50;99.90
5792;DHT22;2922;53.482;10.006;2023-07-09T03:48:12;17.60;99.90
5792;DHT22;2922;53.482;10.006;2023-07-09T03:50:38;17.60;99.90
5792;DHT22;2922;53.482;10.006;2023-07-09T03:53:03;17.60;99.90
5792;DHT22;2922;53.482;10.006;2023-07-09T03:55:31;17.50;99.90
5792;DHT22;2922;53.482;10.006;2023-07-09T03:57:57;17.60;99.90
5792;DHT22;2922;53.482;10.006;2023-07-09T04:00:23;17.50;99.90
5792;DHT22;2922;53.482;10.006;2023-07-09T04:02:51;17.50;99.90
5792;DHT22;2922;53.482;10.006;2023-07-09T04:05:17;17.50;99.90
5792;DHT22;2922;53.482;10.006;2023-07-09T04:07:43;17.50;99.90
5792;DHT22;2922;53.482;10.006;2023-07-09T04:10:09;17.50;99.90
5792;DHT22;2922;53.482;10.006;2023-07-09T04:12:35;17.50;99.90
5792;DHT22;2922;53.482;10.006;2023-07-09T04:15:03;17.50;99.90
5792;DHT22;2922;53.482;10.006;2023-07-09T04:17:28;17.50;99.90
5792;DHT22;2922;53.482;10.006;2023-07-09T04:19:54;17.50;99.90
5792;DHT22;2922;53.482;10.006;2023-07-09T04:22:20;17.50;99.90
5792;DHT22;2922;53.482;10.006;2023-07-09T04:24:46;17.50;99.90
5792;DHT22;2922;53.482;10.006;2023-07-09T04:27:12;17.50;99.90
5792;DHT22;2922;53.482;10.006;2023-07-09T04:29:39;17.50;99.90
5792;DHT22;2922;53.482;10.006;2023-07-09T04:32:06;17.60;99.90
5792;DHT22;2922;53.482;10.006;2023-07-09T04:34:32;17.50;99.90
5792;DHT22;2922;53.482;10.006;2023-07-09T04:36:58;17.50;99.90
5792;DHT22;2922;53.482;10.006;2023-07-09T04:39:23;17.50;99.90
5792;DHT22;2922;53.482;10.006;2023-07-09T04:41:49;17.60;99.90
5792;DHT22;2922;53.482;10.006;2023-07-09T04:44:15;17.60;99.90
5792;DHT22;2922;53.482;10.006;2023-07-09T04:46:40;17.60;99.90
5792;DHT22;2922;53.482;10.006;2023-07-09T04:49:06;17.70;99.90
5792;DHT22;2922;53.482;10.006;2023-07-09T04:51:32;17.70;99.90
5792;DHT22;2922;53.482;10.006;2023-07-09T04:53:58;17.70;99.90
5792;DHT22;2922;53.482;10.006;2023-07-09T04:56:28;17.70;99.90
5792;DHT22;2922;53.482;10.006;2023-07-09T04:58:55;17.80;99.90
5792;DHT22;2922;53.482;10.006;2023-07-09T05:01:20;17.80;99.90
5792;DHT22;2922;53.482;10.006;2023-07-09T05:03:46;17.90;99.90
5792;DHT22;2922;53.482;10.006;2023-07-09T05:06:11;17.90;99.90
5792;DHT22;2922;53.482;10.006;2023-07-09T05:08:37;17.90;99.90
5792;DHT22;2922;53.482;10.006;2023-07-09T05:11:03;18.00;99.90
5792;DHT22;2922;53.482;10.006;2023-07-09T05:13:28;18.00;99.90
5792;DHT22;2922;53.482;10.006;2023-07-09T05:15:54;18.10;99.90
5792;DHT22;2922;53.482;10.006;2023-07-09T05:18:20;18.10;99.90
5792;DHT22;2922;53.482;10.006;2023-07-09T05:20:47;18.20;99.90
5792;DHT22;2922;53.482;10.006;2023-07-09T05:23:13;18.30;99.90
5792;DHT22;2922;53.482;10.006;2023-07-09T05:25:38;18.40;99.90
5792;DHT22;2922;53.482;10.006;2023-07-09T05:28:05;18.50;99.90
5792;DHT22;2922;53.482;10.006;2023-07-09T05:30:31;18.50;99.90
5792;DHT22;2922;53.482;10.006;2023-07-09T05:32:56;18.50;99.90
5792;DHT22;2922;53.482;10.006;2023-07-09T05:35:23;18.60;99.90
5792;DHT22;2922;53.482;10.006;2023-07-09T05:37:50;18.70;99.90
5792;DHT22;2922;53.482;10.006;2023-07-09T05:40:16;18.80;99.90
5792;DHT22;2922;53.482;10.006;2023-07-09T05:42:42;18.80;99.90
5792;DHT22;2922;53.482;10.006;2023-07-09T05:45:08;18.90;99.90
5792;DHT22;2922;53.482;10.006;2023-07-09T05:47:33;19.00;99.90
5792;DHT22;2922;53.482;10.006;2023-07-09T05:49:59;19.00;99.90
5792;DHT22;2922;53.482;10.006;2023-07-09T05:52:25;19.20;99.90
5792;DHT22;2922;53.482;10.006;2023-07-09T05:54:51;19.20;99.90
5792;DHT22;2922;53.482;10.006;2023-07-09T05:57:17;19.40;99.90
5792;DHT22;2922;53.482;10.006;2023-07-09T05:59:43;19.40;99.90
5792;DHT22;2922;53.482;10.006;2023-07-09T06:02:13;19.60;99.90
5792;DHT22;2922;53.482;10.006;2023-07-09T06:04:39;19.70;99.90
5792;DHT22;2922;53.482;10.006;2023-07-09T06:07:04;19.70;99.90
5792;DHT22;2922;53.482;10.006;2023-07-09T06:09:30;19.90;99.90
5792;DHT22;2922;53.482;10.006;2023-07-09T06:11:57;20.00;99.90
5792;DHT22;2922;53.482;10.006;2023-07-09T06:14:22;20.10;99.90
5792;DHT22;2922;53.482;10.006;2023-07-09T06:16:48;20.20;99.90
5792;DHT22;2922;53.482;10.006;2023-07-09T06:19:14;20.40;99.90
5792;DHT22;2922;53.482;10.006;2023-07-09T06:21:40;20.50;99.90
5792;DHT22;2922;53.482;10.006;2023-07-09T06:24:06;20.60;99.90
5792;DHT22;2922;53.482;10.006;2023-07-09T06:26:31;20.70;99.90
5792;DHT22;2922;53.482;10.006;2023-07-09T06:28:57;20.80;99.90
5792;DHT22;2922;53.482;10.006;2023-07-09T06:31:22;21.00;99.90
5792;DHT22;2922;53.482;10.006;2023-07-09T06:33:50;21.10;99.90
5792;DHT22;2922;53.482;10.006;2023-07-09T06:36:16;21.20;99.90
5792;DHT22;2922;53.482;10.006;2023-07-09T06:38:42;21.30;99.90
5792;DHT22;2922;53.482;10.006;2023-07-09T06:41:08;21.50;99.90
5792;DHT22;2922;53.482;10.006;2023-07-09T06:43:34;21.60;99.90
5792;DHT22;2922;53.482;10.006;2023-07-09T06:46:00;21.70;99.90
5792;DHT22;2922;53.482;10.006;2023-07-09T06:48:28;21.80;99.90
5792;DHT22;2922;53.482;10.006;2023-07-09T06:50:55;21.90;99.90
5792;DHT22;2922;53.482;10.006;2023-07-09T06:53:22;22.00;99.90
5792;DHT22;2922;53.482;10.006;2023-07-09T06:55:48;22.20;99.90
5792;DHT22;2922;53.482;10.006;2023-07-09T06:58:22;22.30;99.90
5792;DHT22;2922;53.482;10.006;2023-07-09T07:00:50;22.30;99.90
5792;DHT22;2922;53.482;10.006;2023-07-09T07:03:16;22.40;99.90
5792;DHT22;2922;53.482;10.006;2023-07-09T07:05:46;22.40;99.90
5792;DHT22;2922;53.482;10.006;2023-07-09T07:08:14;22.60;99.90
5792;DHT22;2922;53.482;10.006;2023-07-09T07:10:40;22.80;99.90
5792;DHT22;2922;53.482;10.006;2023-07-09T07:13:06;22.80;99.90
5792;DHT22;2922;53.482;10.006;2023-07-09T07:15:32;22.90;99.90
5792;DHT22;2922;53.482;10.006;2023-07-09T07:17:57;23.00;99.90
5792;DHT22;2922;53.482;10.006;2023-07-09T07:20:23;22.90;99.90
5792;DHT22;2922;53.482;10.006;2023-07-09T07:22:49;23.00;99.90
5792;DHT22;2922;53.482;10.006;2023-07-09T07:25:15;23.00;99.90
5792;DHT22;2922;53.482;10.006;2023-07-09T07:27:40;23.10;99.90
5792;DHT22;2922;53.482;10.006;2023-07-09T07:30:07;23.20;99.90
5792;DHT22;2922;53.482;10.006;2023-07-09T07:32:37;23.30;99.90
5792;DHT22;2922;53.482;10.006;2023-07-09T07:35:03;23.50;99.90
5792;DHT22;2922;53.482;10.006;2023-07-09T07:37:29;23.70;99.90
5792;DHT22;2922;53.482;10.006;2023-07-09T07:39:54;23.80;99.90
5792;DHT22;2922;53.482;10.006;2023-07-09T07:42:20;23.90;99.90
5792;DHT22;2922;53.482;10.006;2023-07-09T07:44:45;23.90;99.90
5792;DHT22;2922;53.482;10.006;2023-07-09T07:47:11;24.00;99.90
5792;DHT22;2922;53.482;10.006;2023-07-09T07:49:37;24.10;99.90
5792;DHT22;2922;53.482;10.006;2023-07-09T07:52:03;24.20;99.90
5792;DHT22;2922;53.482;10.006;2023-07-09T07:54:29;24.30;99.90
5792;DHT22;2922;53.482;10.006;2023-07-09T07:56:57;24.50;99.90
5792;DHT22;2922;53.482;10.006;2023-07-09T07:59:23;24.70;99.90
5792;DHT22;2922;53.482;10.006;2023-07-09T08:01:49;24.90;99.90
5792;DHT22;2922;53.482;10.006;2023-07-09T08:04:15;25.00;99.90
5792;DHT22;2922;53.482;10.006;2023-07-09T08:06:40;25.20;99.90
5792;DHT22;2922;53.482;10.006;2023-07-09T08:09:06;25.40;99.90
5792;DHT22;2922;53.482;10.006;2023-07-09T08:11:32;25.60;99.90
5792;DHT22;2922;53.482;10.006;2023-07-09T08:13:58;25.70;99.10
5792;DHT22;2922;53.482;10.006;2023-07-09T08:16:23;25.80;97.40
5792;DHT22;2922;53.482;10.006;2023-07-09T08:18:49;25.90;99.90
5792;DHT22;2922;53.482;10.006;2023-07-09T08:21:17;26.10;97.30
5792;DHT22;2922;53.482;10.006;2023-07-09T08:23:43;26.30;99.90
5792;DHT22;2922;53.482;10.006;2023-07-09T08:26:08;26.60;99.90
5792;DHT22;2922;53.482;10.006;2023-07-09T08:28:34;26.70;98.80
5792;DHT22;2922;53.482;10.006;2023-07-09T08:31:00;26.90;96.50
5792;DHT22;2922;53.482;10.006;2023-07-09T08:33:26;27.00;92.10
5792;DHT22;2922;53.482;10.006;2023-07-09T08:35:53;27.10;88.60
5792;DHT22;2922;53.482;10.006;2023-07-09T08:38:19;27.20;88.00
5792;DHT22;2922;53.482;10.006;2023-07-09T08:46:26;27.50;84.10
5792;DHT22;2922;53.482;10.006;2023-07-09T08:48:54;27.70;81.30
5792;DHT22;2922;53.482;10.006;2023-07-09T08:51:26;27.80;80.40
5792;DHT22;2922;53.482;10.006;2023-07-09T08:53:59;28.00;78.60
5792;DHT22;2922;53.482;10.006;2023-07-09T08:56:27;28.10;74.60
5792;DHT22;2922;53.482;10.006;2023-07-09T08:58:55;28.30;76.80
5792;DHT22;2922;53.482;10.006;2023-07-09T09:01:29;28.60;76.10
5792;DHT22;2922;53.482;10.006;2023-07-09T09:04:13;28.70;70.40
5792;DHT22;2922;53.482;10.006;2023-07-09T09:06:42;28.80;68.30
5792;DHT22;2922;53.482;10.006;2023-07-09T09:09:36;28.80;68.30
5792;DHT22;2922;53.482;10.006;2023-07-09T09:12:16;28.90;72.20
5792;DHT22;2922;53.482;10.006;2023-07-09T09:14:47;29.20;72.20
5792;DHT22;2922;53.482;10.006;2023-07-09T09:17:20;29.50;68.50
5792;DHT22;2922;53.482;10.006;2023-07-09T09:19:56;29.50;61.60
5792;DHT22;2922;53.482;10.006;2023-07-09T09:22:31;29.50;62.10
5792;DHT22;2922;53.482;10.006;2023-07-09T09:25:11;29.60;63.70
5792;DHT22;2922;53.482;10.006;2023-07-09T09:27:41;29.70;63.70
5792;DHT22;2922;53.482;10.006;2023-07-09T09:30:25;29.90;64.30
5792;DHT22;2922;53.482;10.006;2023-07-09T09:32:59;30.00;61.00
5792;DHT22;2922;53.482;10.006;2023-07-09T09:35:36;29.90;62.50
5792;DHT22;2922;53.482;10.006;2023-07-09T09:38:08;29.90;61.50
5792;DHT22;2922;53.482;10.006;2023-07-09T09:40:35;29.90;60.90
5792;DHT22;2922;53.482;10.006;2023-07-09T09:43:02;30.00;60.80
5792;DHT22;2922;53.482;10.006;2023-07-09T09:45:33;30.20;61.00
5792;DHT22;2922;53.482;10.006;2023-07-09T09:48:01;30.30;62.80
5792;DHT22;2922;53.482;10.006;2023-07-09T09:50:31;30.50;60.00
5792;DHT22;2922;53.482;10.006;2023-07-09T09:52:58;30.70;58.90
5792;DHT22;2922;53.482;10.006;2023-07-09T09:55:27;30.80;61.20
5792;DHT22;2922;53.482;10.006;2023-07-09T09:57:54;30.90;58.10
5792;DHT22;2922;53.482;10.006;2023-07-09T10:00:26;30.90;57.20
5792;DHT22;2922;53.482;10.006;2023-07-09T10:03:00;31.00;56.20
5792;DHT22;2922;53.482;10.006;2023-07-09T10:05:42;31.20;56.30
5792;DHT22;2922;53.482;10.006;2023-07-09T10:10:52;31.50;55.50
5792;DHT22;2922;53.482;10.006;2023-07-09T10:13:20;31.70;55.30
5792;DHT22;2922;53.482;10.006;2023-07-09T10:19:12;32.00;52.60
5792;DHT22;2922;53.482;10.006;2023-07-09T10:21:47;32.00;52.50
5792;DHT22;2922;53.482;10.006;2023-07-09T10:24:33;32.20;54.70
5792;DHT22;2922;53.482;10.006;2023-07-09T10:27:05;32.40;54.20
5792;DHT22;2922;53.482;10.006;2023-07-09T10:29:55;32.60;51.90
5792;DHT22;2922;53.482;10.006;2023-07-09T10:35:32;32.70;50.40
5792;DHT22;2922;53.482;10.006;2023-07-09T10:40:56;32.90;48.50
5792;DHT22;2922;53.482;10.006;2023-07-09T10:46:01;33.10;48.50
5792;DHT22;2922;53.482;10.006;2023-07-09T10:48:41;33.30;47.90
5792;DHT22;2922;53.482;10.006;2023-07-09T10:54:32;33.60;47.70
5792;DHT22;2922;53.482;10.006;2023-07-09T10:57:13;33.70;45.20
5792;DHT22;2922;53.482;10.006;2023-07-09T10:59:43;33.80;46.10
5792;DHT22;2922;53.482;10.006;2023-07-09T11:02:27;33.80;46.00
5792;DHT22;2922;53.482;10.006;2023-07-09T11:10:34;34.00;44.00
5792;DHT22;2922;53.482;10.006;2023-07-09T11:13:12;34.00;43.60
5792;DHT22;2922;53.482;10.006;2023-07-09T11:15:46;34.10;44.40
5792;DHT22;2922;53.482;10.006;2023-07-09T11:18:20;34.20;42.10
5792;DHT22;2922;53.482;10.006;2023-07-09T11:20:47;34.50;45.10
5792;DHT22;2922;53.482;10.006;2023-07-09T11:23:23;34.60;43.20
5792;DHT22;2922;53.482;10.006;2023-07-09T11:26:02;34.70;42.70
5792;DHT22;2922;53.482;10.006;2023-07-09T11:28:35;34.70;41.20
5792;DHT22;2922;53.482;10.006;2023-07-09T11:31:06;34.80;40.80
5792;DHT22;2922;53.482;10.006;2023-07-09T11:33:32;34.80;42.30
5792;DHT22;2922;53.482;10.006;2023-07-09T11:36:10;34.90;41.10
5792;DHT22;2922;53.482;10.006;2023-07-09T11:38:43;35.00;39.90
5792;DHT22;2922;53.482;10.006;2023-07-09T11:46:35;35.20;41.60
5792;DHT22;2922;53.482;10.006;2023-07-09T11:49:02;35.40;39.90
5792;DHT22;2922;53.482;10.006;2023-07-09T11:51:40;35.50;40.90
5792;DHT22;2922;53.482;10.006;2023-07-09T11:54:11;35.70;37.80
5792;DHT22;2922;53.482;10.006;2023-07-09T11:56:40;35.60;37.30
5792;DHT22;2922;53.482;10.006;2023-07-09T11:59:07;35.70;37.60
5792;DHT22;2922;53.482;10.006;2023-07-09T12:01:41;35.60;36.30
5792;DHT22;2922;53.482;10.006;2023-07-09T12:04:15;35.70;36.20
5792;DHT22;2922;53.482;10.006;2023-07-09T12:06:42;35.70;35.50
5792;DHT22;2922;53.482;10.006;2023-07-09T12:09:16;35.80;35.40
5792;DHT22;2922;53.482;10.006;2023-07-09T12:11:45;35.90;34.70
5792;DHT22;2922;53.482;10.006;2023-07-09T12:14:13;36.20;36.50
5792;DHT22;2922;53.482;10.006;2023-07-09T12:16:42;36.30;37.40
5792;DHT22;2922;53.482;10.006;2023-07-09T12:19:10;36.40;35.00
5792;DHT22;2922;53.482;10.006;2023-07-09T12:21:39;36.40;34.60
5792;DHT22;2922;53.482;10.006;2023-07-09T12:24:36;36.40;35.10
5792;DHT22;2922;53.482;10.006;2023-07-09T12:27:15;36.50;33.80
5792;DHT22;2922;53.482;10.006;2023-07-09T12:29:42;36.30;34.30
5792;DHT22;2922;53.482;10.006;2023-07-09T12:32:16;36.10;33.50
5792;DHT22;2922;53.482;10.006;2023-07-09T12:34:42;36.00;34.90
5792;DHT22;2922;53.482;10.006;2023-07-09T12:37:13;36.00;33.80
5792;DHT22;2922;53.482;10.006;2023-07-09T12:39:40;36.10;33.40
5792;DHT22;2922;53.482;10.006;2023-07-09T12:42:14;36.20;34.70
5792;DHT22;2922;53.482;10.006;2023-07-09T12:44:40;36.20;35.20
5792;DHT22;2922;53.482;10.006;2023-07-09T12:47:23;36.10;35.90
5792;DHT22;2922;53.482;10.006;2023-07-09T12:49:48;36.10;34.50
5792;DHT22;2922;53.482;10.006;2023-07-09T12:52:22;36.20;34.60
5792;DHT22;2922;53.482;10.006;2023-07-09T12:55:03;36.50;37.10
5792;DHT22;2922;53.482;10.006;2023-07-09T12:57:29;36.60;32.20
5792;DHT22;2922;53.482;10.006;2023-07-09T12:59:56;36.80;33.00
5792;DHT22;2922;53.482;10.006;2023-07-09T13:02:26;37.00;34.10
5792;DHT22;2922;53.482;10.006;2023-07-09T13:05:16;37.10;33.70
5792;DHT22;2922;53.482;10.006;2023-07-09T13:07:47;37.00;31.00
5792;DHT22;2922;53.482;10.006;2023-07-09T13:10:17;37.00;32.90
5792;DHT22;2922;53.482;10.006;2023-07-09T13:12:50;37.10;32.80
5792;DHT22;2922;53.482;10.006;2023-07-09T13:15:21;37.00;31.60
5792;DHT22;2922;53.482;10.006;2023-07-09T13:17:47;36.90;31.50
5792;DHT22;2922;53.482;10.006;2023-07-09T13:20:13;37.00;32.30
5792;DHT22;2922;53.482;10.006;2023-07-09T13:22:38;37.00;32.10
5792;DHT22;2922;53.482;10.006;2023-07-09T13:25:06;37.20;32.10
5792;DHT22;2922;53.482;10.006;2023-07-09T13:27:32;37.20;29.30
5792;DHT22;2922;53.482;10.006;2023-07-09T13:29:58;37.20;31.50
5792;DHT22;2922;53.482;10.006;2023-07-09T13:32:23;37.30;32.00
5792;DHT22;2922;53.482;10.006;2023-07-09T13:34:49;37.10;29.60
5792;DHT22;2922;53.482;10.006;2023-07-09T13:37:16;37.20;30.90
5792;DHT22;2922;53.482;10.006;2023-07-09T13:39:42;37.20;31.60
5792;DHT22;2922;53.482;10.006;2023-07-09T13:42:13;37.40;32.20
5792;DHT22;2922;53.482;10.006;2023-07-09T13:44:41;37.50;28.40
5792;DHT22;2922;53.482;10.006;2023-07-09T13:47:17;37.40;30.00
5792;DHT22;2922;53.482;10.006;2023-07-09T13:49:45;37.40;30.20
5792;DHT22;2922;53.482;10.006;2023-07-09T13:52:18;37.30;29.20
5792;DHT22;2922;53.482;10.006;2023-07-09T13:54:44;37.30;29.60
5792;DHT22;2922;53.482;10.006;2023-07-09T13:57:15;37.20;28.90
5792;DHT22;2922;53.482;10.006;2023-07-09T13:59:41;37.10;29.80
5792;DHT22;2922;53.482;10.006;2023-07-09T14:02:24;37.00;29.60
5792;DHT22;2922;53.482;10.006;2023-07-09T14:04:52;36.80;28.60
5792;DHT22;2922;53.482;10.006;2023-07-09T14:07:44;36.70;30.00
5792;DHT22;2922;53.482;10.006;2023-07-09T14:10:14;36.70;28.60
5792;DHT22;2922;53.482;10.006;2023-07-09T14:12:45;36.40;27.90
5792;DHT22;2922;53.482;10.006;2023-07-09T14:15:17;36.30;28.80
5792;DHT22;2922;53.482;10.006;2023-07-09T14:17:44;36.30;29.20
5792;DHT22;2922;53.482;10.006;2023-07-09T14:20:17;36.30;30.80
5792;DHT22;2922;53.482;10.006;2023-07-09T14:22:43;36.20;29.90
5792;DHT22;2922;53.482;10.006;2023-07-09T14:25:22;36.30;32.40
5792;DHT22;2922;53.482;10.006;2023-07-09T14:27:49;36.40;29.60
5792;DHT22;2922;53.482;10.006;2023-07-09T14:30:24;36.50;31.20
5792;DHT22;2922;53.482;10.006;2023-07-09T14:32:51;36.50;30.70
5792;DHT22;2922;53.482;10.006;2023-07-09T14:35:23;36.50;28.80
5792;DHT22;2922;53.482;10.006;2023-07-09T14:37:51;36.50;28.60
5792;DHT22;2922;53.482;10.006;2023-07-09T14:40:19;36.60;30.70
5792;DHT22;2922;53.482;10.006;2023-07-09T14:42:49;36.50;29.00
5792;DHT22;2922;53.482;10.006;2023-07-09T14:45:25;36.50;29.10
5792;DHT22;2922;53.482;10.006;2023-07-09T14:47:52;36.50;27.80
5792;DHT22;2922;53.482;10.006;2023-07-09T14:50:19;36.50;29.00
5792;DHT22;2922;53.482;10.006;2023-07-09T14:52:46;36.50;29.10
5792;DHT22;2922;53.482;10.006;2023-07-09T14:55:20;36.50;29.00
5792;DHT22;2922;53.482;10.006;2023-07-09T14:57:46;36.50;29.30
5792;DHT22;2922;53.482;10.006;2023-07-09T15:00:17;36.50;30.20
5792;DHT22;2922;53.482;10.006;2023-07-09T15:02:44;36.40;29.50
5792;DHT22;2922;53.482;10.006;2023-07-09T15:05:20;36.40;29.90
5792;DHT22;2922;53.482;10.006;2023-07-09T15:07:46;36.40;29.70
5792;DHT22;2922;53.482;10.006;2023-07-09T15:10:14;36.50;29.60
5792;DHT22;2922;53.482;10.006;2023-07-09T15:12:40;36.30;29.20
5792;DHT22;2922;53.482;10.006;2023-07-09T15:17:41;36.10;27.30
5792;DHT22;2922;53.482;10.006;2023-07-09T15:20:16;36.00;28.50
5792;DHT22;2922;53.482;10.006;2023-07-09T15:22:43;36.00;27.90
5792;DHT22;2922;53.482;10.006;2023-07-09T15:25:18;36.00;29.20
5792;DHT22;2922;53.482;10.006;2023-07-09T15:27:44;36.00;28.90
5792;DHT22;2922;53.482;10.006;2023-07-09T15:32:39;35.90;30.30
5792;DHT22;2922;53.482;10.006;2023-07-09T15:35:05;35.80;29.50
5792;DHT22;2922;53.482;10.006;2023-07-09T15:37:30;35.80;29.40
5792;DHT22;2922;53.482;10.006;2023-07-09T15:39:56;35.80;28.90
5792;DHT22;2922;53.482;10.006;2023-07-09T15:42:21;35.60;28.10
5792;DHT22;2922;53.482;10.006;2023-07-09T15:44:49;35.50;29.40
5792;DHT22;2922;53.482;10.006;2023-07-09T15:47:24;35.40;29.40
5792;DHT22;2922;53.482;10.006;2023-07-09T15:49:49;35.30;29.70
5792;DHT22;2922;53.482;10.006;2023-07-09T15:52:15;35.20;28.40
5792;DHT22;2922;53.482;10.006;2023-07-09T15:54:41;35.10;28.30
5792;DHT22;2922;53.482;10.006;2023-07-09T15:57:08;35.00;29.80
5792;DHT22;2922;53.482;10.006;2023-07-09T15:59:36;34.90;30.00
5792;DHT22;2922;53.482;10.006;2023-07-09T16:02:10;35.00;31.20
5792;DHT22;2922;53.482;10.006;2023-07-09T16:04:35;34.90;30.10
5792;DHT22;2922;53.482;10.006;2023-07-09T16:07:01;34.90;30.90
5792;DHT22;2922;53.482;10.006;2023-07-09T16:09:27;34.90;30.80
5792;DHT22;2922;53.482;10.006;2023-07-09T16:11:53;34.90;31.80
5792;DHT22;2922;53.482;10.006;2023-07-09T16:14:27;34.90;31.70
5792;DHT22;2922;53.482;10.006;2023-07-09T16:16:55;34.80;33.70
5792;DHT22;2922;53.482;10.006;2023-07-09T16:19:23;34.80;31.90
5792;DHT22;2922;53.482;10.006;2023-07-09T16:21:51;34.70;30.20
5792;DHT22;2922;53.482;10.006;2023-07-09T16:24:24;34.60;31.30
5792;DHT22;2922;53.482;10.006;2023-07-09T16:26:50;34.60;32.10
5792;DHT22;2922;53.482;10.006;2023-07-09T16:29:28;34.60;31.80
5792;DHT22;2922;53.482;10.006;2023-07-09T16:31:55;34.50;31.70
5792;DHT22;2922;53.482;10.006;2023-07-09T16:34:26;34.50;34.20
5792;DHT22;2922;53.482;10.006;2023-07-09T16:36:52;34.40;32.50
5792;DHT22;2922;53.482;10.006;2023-07-09T16:41:48;34.30;31.80